Time,TemperatureF,DewpointF,PressureIn,WindDirection,WindDirectionDegrees,WindSpeedMPH,WindSpeedGustMPH,Humidity,HourlyPrecipIn,Conditions,Clouds,dailyrainin,SoftwareType,DateUTC
2013-07-03 00:00:00,79.3,76.1,30.10,SSE,151,0.0,1.0,90,0.00,,,0.00,Wunderground v.1.15,2013-07-03 04:00:00,
2013-07-03 00:05:00,79.8,76.3,30.10,South,183,1.0,2.0,89,0.00,,,0.00,Wunderground v.1.15,2013-07-03 04:05:00,
2013-07-03 00:10:00,80.3,76.4,30.10,SE,145,1.0,1.0,88,0.00,,,0.00,Wunderground v.1.15,2013-07-03 04:10:00,
2013-07-03 00:14:00,80.7,76.5,30.10,SW,217,1.0,1.0,87,0.00,,,0.00,Wunderground v.1.15,2013-07-03 04:14:00,
2013-07-03 00:20:00,81.0,76.8,30.10,WSW,240,1.0,2.0,87,0.00,,,0.00,Wunderground v.1.15,2013-07-03 04:20:00,
2013-07-03 00:25:00,81.2,76.6,30.10,South,177,1.0,4.0,86,0.00,,,0.00,Wunderground v.1.15,2013-07-03 04:25:00,
2013-07-03 00:30:00,81.3,76.7,30.10,SW,220,2.0,2.0,86,0.00,,,0.00,Wunderground v.1.15,2013-07-03 04:30:00,
2013-07-03 00:40:00,81.2,76.3,30.09,ESE,123,1.0,1.0,85,0.00,,,0.00,Wunderground v.1.15,2013-07-03 04:40:00,
2013-07-03 00:50:00,81.4,75.4,30.09,SW,217,3.0,3.0,82,0.00,,,0.00,Wunderground v.1.15,2013-07-03 04:50:00,
2013-07-03 01:00:00,81.6,76.3,30.09,SW,215,1.0,2.0,84,0.00,,,0.00,Wunderground v.1.15,2013-07-03 05:00:00,
2013-07-03 01:05:00,81.6,75.9,30.09,SW,228,2.0,4.0,83,0.00,,,0.00,Wunderground v.1.15,2013-07-03 05:05:00,
2013-07-03 01:15:00,81.6,76.3,30.08,WSW,238,2.0,3.0,84,0.00,,,0.00,Wunderground v.1.15,2013-07-03 05:15:00,
2013-07-03 01:20:00,81.7,76.4,30.08,SW,224,3.0,3.0,84,0.00,,,0.00,Wunderground v.1.15,2013-07-03 05:20:00,
2013-07-03 01:30:00,81.7,76.7,30.08,SE,145,2.0,2.0,85,0.00,,,0.00,Wunderground v.1.15,2013-07-03 05:30:00,
2013-07-03 01:35:00,81.7,76.7,30.08,SSW,194,1.0,2.0,85,0.00,,,0.00,Wunderground v.1.15,2013-07-03 05:35:00,
2013-07-03 01:45:00,81.7,77.1,30.08,SW,232,2.0,4.0,86,0.00,,,0.00,Wunderground v.1.15,2013-07-03 05:45:00,
2013-07-03 01:50:00,81.6,76.6,30.07,SSE,150,3.0,3.0,85,0.00,,,0.00,Wunderground v.1.15,2013-07-03 05:50:00,
2013-07-03 02:00:00,81.8,77.2,30.07,SSW,198,3.0,3.0,86,0.00,,,0.00,Wunderground v.1.15,2013-07-03 06:00:00,
2013-07-03 02:10:00,81.8,77.2,30.06,SSW,204,1.0,3.0,86,0.00,,,0.00,Wunderground v.1.15,2013-07-03 06:10:00,
2013-07-03 02:19:00,81.7,77.5,30.06,WNW,302,2.0,2.0,87,0.00,,,0.00,Wunderground v.1.15,2013-07-03 06:19:00,
2013-07-03 02:25:00,81.7,77.1,30.06,South,186,2.0,3.0,86,0.00,,,0.00,Wunderground v.1.15,2013-07-03 06:25:00,
2013-07-03 02:30:00,81.7,77.1,30.05,WSW,240,3.0,3.0,86,0.00,,,0.00,Wunderground v.1.15,2013-07-03 06:30:00,
2013-07-03 02:40:00,81.6,77.0,30.05,ESE,107,3.0,3.0,86,0.00,,,0.00,Wunderground v.1.15,2013-07-03 06:40:00,
2013-07-03 02:45:00,81.5,76.9,30.06,SSW,211,2.0,3.0,86,0.00,,,0.00,Wunderground v.1.15,2013-07-03 06:45:00,
2013-07-03 02:50:00,81.5,76.9,30.06,East,92,2.0,2.0,86,0.00,,,0.00,Wunderground v.1.15,2013-07-03 06:50:00,
2013-07-03 03:00:00,81.7,77.1,30.06,East,94,2.0,2.0,86,0.00,,,0.00,Wunderground v.1.15,2013-07-03 07:00:00,
2013-07-03 03:05:00,81.7,77.1,30.06,SSE,163,2.0,2.0,86,0.00,,,0.00,Wunderground v.1.15,2013-07-03 07:05:00,
2013-07-03 03:10:00,81.7,77.1,30.06,ESE,116,3.0,7.0,86,0.00,,,0.00,Wunderground v.1.15,2013-07-03 07:10:00,
2013-07-03 03:19:00,81.2,76.3,30.05,SW,219,5.0,5.0,85,0.00,,,0.00,Wunderground v.1.15,2013-07-03 07:19:00,
2013-07-03 03:25:00,80.2,75.6,30.05,NE,44,6.0,6.0,86,0.00,,,0.01,Wunderground v.1.15,2013-07-03 07:25:00,
2013-07-03 03:30:00,79.6,75.4,30.05,ESE,114,3.0,3.0,87,0.00,,,0.01,Wunderground v.1.15,2013-07-03 07:30:00,
2013-07-03 03:45:00,78.6,75.1,30.06,SW,227,3.0,4.0,89,0.00,,,0.01,Wunderground v.1.15,2013-07-03 07:45:00,
2013-07-03 03:55:00,79.0,75.8,30.06,SSW,194,4.0,8.0,90,0.00,,,0.01,Wunderground v.1.15,2013-07-03 07:55:00,
2013-07-03 04:04:00,79.0,75.5,30.06,ESE,111,4.0,7.0,89,0.00,,,0.01,Wunderground v.1.15,2013-07-03 08:04:00,
2013-07-03 04:10:00,79.1,75.6,30.06,SSW,205,3.0,5.0,89,0.00,,,0.01,Wunderground v.1.15,2013-07-03 08:10:00,
2013-07-03 04:15:00,79.2,75.7,30.06,SW,220,4.0,7.0,89,0.00,,,0.01,Wunderground v.1.15,2013-07-03 08:15:00,
2013-07-03 04:20:00,79.2,76.0,30.06,SW,215,5.0,5.0,90,0.00,,,0.01,Wunderground v.1.15,2013-07-03 08:20:00,
2013-07-03 04:25:00,79.2,76.0,30.06,South,175,5.0,5.0,90,0.00,,,0.01,Wunderground v.1.15,2013-07-03 08:25:00,
2013-07-03 04:30:00,79.1,75.6,30.06,SW,231,3.0,4.0,89,0.00,,,0.01,Wunderground v.1.15,2013-07-03 08:30:00,
2013-07-03 04:40:00,79.2,75.3,30.06,South,183,4.0,4.0,88,0.00,,,0.01,Wunderground v.1.15,2013-07-03 08:40:00,
2013-07-03 04:45:00,79.2,75.3,30.06,SSW,207,2.0,4.0,88,0.00,,,0.01,Wunderground v.1.15,2013-07-03 08:45:00,
2013-07-03 04:55:00,79.2,75.0,30.06,SSW,202,2.0,2.0,87,0.00,,,0.01,Wunderground v.1.15,2013-07-03 08:55:00,
2013-07-03 05:00:00,79.3,75.4,30.06,West,260,2.0,2.0,88,0.00,,,0.01,Wunderground v.1.15,2013-07-03 09:00:00,
2013-07-03 05:15:00,79.8,75.9,30.07,ENE,68,3.0,4.0,88,0.00,,,0.01,Wunderground v.1.15,2013-07-03 09:15:00,
2013-07-03 05:30:00,80.2,75.6,30.07,SSE,159,4.0,6.0,86,0.00,,,0.01,Wunderground v.1.15,2013-07-03 09:30:00,
2013-07-03 05:35:00,80.6,75.7,30.07,SW,217,4.0,6.0,85,0.00,,,0.01,Wunderground v.1.15,2013-07-03 09:35:00,
2013-07-03 05:44:00,81.0,76.1,30.07,West,263,4.0,6.0,85,0.00,,,0.01,Wunderground v.1.15,2013-07-03 09:44:00,
2013-07-03 05:50:00,80.9,75.6,30.07,SW,231,4.0,4.0,84,0.00,,,0.01,Wunderground v.1.15,2013-07-03 09:50:00,
2013-07-03 06:00:00,81.0,76.1,30.07,SW,219,4.0,6.0,85,0.00,,,0.01,Wunderground v.1.15,2013-07-03 10:00:00,
2013-07-03 06:05:00,81.0,76.1,30.07,SW,227,4.0,9.0,85,0.00,,,0.01,Wunderground v.1.15,2013-07-03 10:05:00,
2013-07-03 06:15:00,81.0,76.1,30.07,SSW,207,3.0,4.0,85,0.00,,,0.01,Wunderground v.1.15,2013-07-03 10:15:00,
2013-07-03 06:25:00,81.1,76.5,30.07,SSW,213,3.0,6.0,86,0.00,,,0.01,Wunderground v.1.15,2013-07-03 10:25:00,
2013-07-03 06:30:00,81.1,76.5,30.07,SW,225,2.0,4.0,86,0.00,,,0.01,Wunderground v.1.15,2013-07-03 10:30:00,
2013-07-03 06:34:00,80.9,76.0,30.07,SW,222,3.0,4.0,85,0.00,,,0.01,Wunderground v.1.15,2013-07-03 10:34:00,
2013-07-03 06:40:00,81.1,76.2,30.07,SSW,211,3.0,3.0,85,0.00,,,0.01,Wunderground v.1.15,2013-07-03 10:40:00,
2013-07-03 06:50:00,81.1,76.2,30.07,SW,215,3.0,5.0,85,0.00,,,0.01,Wunderground v.1.15,2013-07-03 10:50:00,
2013-07-03 07:00:00,81.1,76.5,30.08,South,191,3.0,3.0,86,0.00,,,0.01,Wunderground v.1.15,2013-07-03 11:00:00,
2013-07-03 07:05:00,81.1,76.5,30.08,SSW,195,2.0,3.0,86,0.00,,,0.01,Wunderground v.1.15,2013-07-03 11:05:00,
2013-07-03 07:15:00,81.2,76.6,30.08,SSW,194,2.0,2.0,86,0.00,,,0.01,Wunderground v.1.15,2013-07-03 11:15:00,
2013-07-03 07:29:00,81.6,77.0,30.08,West,274,3.0,3.0,86,0.00,,,0.01,Wunderground v.1.15,2013-07-03 11:29:00,
2013-07-03 07:35:00,81.8,77.2,30.08,SE,130,2.0,3.0,86,0.00,,,0.01,Wunderground v.1.15,2013-07-03 11:35:00,
2013-07-03 07:40:00,81.8,76.8,30.08,SW,231,2.0,3.0,85,0.00,,,0.01,Wunderground v.1.15,2013-07-03 11:40:00,
2013-07-03 07:45:00,82.0,77.0,30.08,SSW,210,2.0,3.0,85,0.00,,,0.01,Wunderground v.1.15,2013-07-03 11:45:00,
2013-07-03 07:50:00,82.2,77.2,30.08,South,191,2.0,6.0,85,0.00,,,0.01,Wunderground v.1.15,2013-07-03 11:50:00,
2013-07-03 07:55:00,82.4,77.1,30.08,West,264,3.0,6.0,84,0.00,,,0.01,Wunderground v.1.15,2013-07-03 11:55:00,
2013-07-03 08:00:00,82.5,76.8,30.09,SSW,212,3.0,4.0,83,0.00,,,0.01,Wunderground v.1.15,2013-07-03 12:00:00,
2013-07-03 08:05:00,82.6,76.9,30.09,SW,214,4.0,6.0,83,0.00,,,0.01,Wunderground v.1.15,2013-07-03 12:05:00,
2013-07-03 08:14:00,82.3,77.0,30.09,NE,49,6.0,6.0,84,0.00,,,0.01,Wunderground v.1.15,2013-07-03 12:14:00,
2013-07-03 08:20:00,80.7,74.3,30.09,SSE,151,5.0,6.0,81,0.00,,,0.02,Wunderground v.1.15,2013-07-03 12:20:00,
2013-07-03 08:30:00,79.9,74.6,30.10,SE,146,3.0,3.0,84,0.00,,,0.02,Wunderground v.1.15,2013-07-03 12:30:00,
2013-07-03 08:40:00,80.7,75.4,30.10,SSW,194,1.0,5.0,84,0.00,,,0.02,Wunderground v.1.15,2013-07-03 12:40:00,
2013-07-03 08:45:00,80.9,75.6,30.10,SSE,156,2.0,5.0,84,0.00,,,0.02,Wunderground v.1.15,2013-07-03 12:45:00,
2013-07-03 08:55:00,82.1,77.8,30.10,West,271,3.0,3.0,87,0.00,,,0.03,Wunderground v.1.15,2013-07-03 12:55:00,
2013-07-03 09:00:00,82.0,77.7,30.10,SW,220,4.0,5.0,87,0.00,,,0.03,Wunderground v.1.15,2013-07-03 13:00:00,
2013-07-03 09:10:00,82.0,77.0,30.10,SSW,204,7.0,9.0,85,0.00,,,0.03,Wunderground v.1.15,2013-07-03 13:10:00,
2013-07-03 09:15:00,81.9,76.6,30.10,SSW,193,7.0,9.0,84,0.00,,,0.03,Wunderground v.1.15,2013-07-03 13:15:00,
2013-07-03 09:25:00,82.2,76.5,30.10,South,173,4.0,5.0,83,0.00,,,0.03,Wunderground v.1.15,2013-07-03 13:25:00,
2013-07-03 09:30:00,82.3,76.3,30.10,SW,227,5.0,6.0,82,0.00,,,0.03,Wunderground v.1.15,2013-07-03 13:30:00,
2013-07-03 09:39:00,82.6,76.5,30.10,West,269,6.0,6.0,82,0.00,,,0.03,Wunderground v.1.15,2013-07-03 13:39:00,
2013-07-03 09:50:00,83.0,76.6,30.11,SSW,198,6.0,6.0,81,0.00,,,0.03,Wunderground v.1.15,2013-07-03 13:50:00,
2013-07-03 10:00:00,83.4,76.6,30.11,South,176,5.0,5.0,80,0.00,,,0.03,Wunderground v.1.15,2013-07-03 14:00:00,
2013-07-03 10:10:00,83.5,76.3,30.12,WSW,238,7.0,7.0,79,0.00,,,0.03,Wunderground v.1.15,2013-07-03 14:10:00,
2013-07-03 10:20:00,84.0,76.8,30.12,SE,136,6.0,7.0,79,0.00,,,0.03,Wunderground v.1.15,2013-07-03 14:20:00,
2013-07-03 10:29:00,84.5,77.3,30.12,SW,224,5.0,8.0,79,0.00,,,0.03,Wunderground v.1.15,2013-07-03 14:29:00,
2013-07-03 10:35:00,84.7,77.1,30.12,SSW,201,4.0,8.0,78,0.00,,,0.03,Wunderground v.1.15,2013-07-03 14:35:00,
2013-07-03 10:40:00,84.7,77.1,30.12,WSW,241,6.0,6.0,78,0.00,,,0.03,Wunderground v.1.15,2013-07-03 14:40:00,
2013-07-03 10:50:00,84.6,77.4,30.12,SSW,198,6.0,7.0,79,0.00,,,0.03,Wunderground v.1.15,2013-07-03 14:50:00,
2013-07-03 10:55:00,85.0,77.8,30.12,SW,224,6.0,14.0,79,0.00,,,0.03,Wunderground v.1.15,2013-07-03 14:55:00,
2013-07-03 11:00:00,84.9,77.7,30.12,SSW,201,6.0,7.0,79,0.00,,,0.03,Wunderground v.1.15,2013-07-03 15:00:00,
2013-07-03 11:10:00,85.2,77.9,30.12,SW,231,7.0,9.0,79,0.00,,,0.03,Wunderground v.1.15,2013-07-03 15:10:00,
2013-07-03 11:15:00,85.3,77.7,30.12,SSW,202,6.0,9.0,78,0.00,,,0.03,Wunderground v.1.15,2013-07-03 15:15:00,
2013-07-03 11:20:00,85.8,78.5,30.12,ENE,67,5.0,5.0,79,0.00,,,0.03,Wunderground v.1.15,2013-07-03 15:20:00,
2013-07-03 11:25:00,86.5,78.0,30.12,West,266,3.0,5.0,76,0.00,,,0.03,Wunderground v.1.15,2013-07-03 15:25:00,
2013-07-03 11:30:00,86.6,77.7,30.12,SSW,212,3.0,5.0,75,0.00,,,0.03,Wunderground v.1.15,2013-07-03 15:30:00,
2013-07-03 11:35:00,86.6,78.1,30.12,ESE,103,4.0,5.0,76,0.00,,,0.03,Wunderground v.1.15,2013-07-03 15:35:00,
2013-07-03 11:40:00,86.8,78.3,30.12,SW,233,4.0,5.0,76,0.00,,,0.03,Wunderground v.1.15,2013-07-03 15:40:00,
2013-07-03 11:45:00,86.4,78.3,30.12,South,181,5.0,5.0,77,0.00,,,0.03,Wunderground v.1.15,2013-07-03 15:45:00,
2013-07-03 11:55:00,86.5,77.6,30.12,SSW,205,5.0,7.0,75,0.00,,,0.03,Wunderground v.1.15,2013-07-03 15:55:00,
2013-07-03 12:00:00,86.3,77.8,30.13,SSW,212,6.0,6.0,76,0.00,,,0.03,Wunderground v.1.15,2013-07-03 16:00:00,
2013-07-03 12:10:00,86.0,77.1,30.13,SW,224,6.0,8.0,75,0.00,,,0.03,Wunderground v.1.15,2013-07-03 16:10:00,
2013-07-03 12:15:00,85.5,76.7,30.13,SW,224,7.0,11.0,75,0.00,,,0.03,Wunderground v.1.15,2013-07-03 16:15:00,
2013-07-03 12:25:00,84.7,76.3,30.13,SW,235,7.0,12.0,76,0.00,,,0.03,Wunderground v.1.15,2013-07-03 16:25:00,
2013-07-03 12:35:00,85.3,76.9,30.13,SSW,202,7.0,8.0,76,0.00,,,0.03,Wunderground v.1.15,2013-07-03 16:35:00,
2013-07-03 12:45:00,85.7,77.3,30.13,SW,224,7.0,11.0,76,0.00,,,0.03,Wunderground v.1.15,2013-07-03 16:45:00,
2013-07-03 12:55:00,85.7,77.3,30.13,SSW,210,7.0,7.0,76,0.00,,,0.03,Wunderground v.1.15,2013-07-03 16:55:00,
2013-07-03 13:00:00,85.7,77.7,30.13,WSW,237,7.0,8.0,77,0.00,,,0.03,Wunderground v.1.15,2013-07-03 17:00:00,
2013-07-03 13:10:00,85.6,77.2,30.12,SSW,202,8.0,8.0,76,0.00,,,0.03,Wunderground v.1.15,2013-07-03 17:10:00,
2013-07-03 13:20:00,85.6,77.6,30.12,WSW,237,8.0,8.0,77,0.00,,,0.03,Wunderground v.1.15,2013-07-03 17:20:00,
2013-07-03 13:30:00,85.4,77.8,30.11,SW,220,9.0,9.0,78,0.00,,,0.03,Wunderground v.1.15,2013-07-03 17:30:00,
2013-07-03 21:15:00,81.4,76.5,30.10,East,98,2.0,2.0,85,0.00,,,0.05,Wunderground v.1.15,2013-07-04 01:15:00,
2013-07-03 21:25:00,81.6,76.3,30.10,West,274,1.0,1.0,84,0.00,,,0.05,Wunderground v.1.15,2013-07-04 01:25:00,
2013-07-03 21:35:00,81.8,76.5,30.10,SSE,164,1.0,1.0,84,0.00,,,0.05,Wunderground v.1.15,2013-07-04 01:35:00,
2013-07-03 21:45:00,81.9,76.6,30.11,SW,214,2.0,5.0,84,0.00,,,0.05,Wunderground v.1.15,2013-07-04 01:45:00,
2013-07-03 21:55:00,82.0,76.7,30.11,SSW,198,2.0,4.0,84,0.00,,,0.05,Wunderground v.1.15,2013-07-04 01:55:00,
2013-07-03 22:00:00,82.0,76.7,30.11,SW,219,2.0,2.0,84,0.00,,,0.05,Wunderground v.1.15,2013-07-04 02:00:00,
2013-07-03 22:10:00,82.0,76.7,30.11,East,79,2.0,2.0,84,0.00,,,0.05,Wunderground v.1.15,2013-07-04 02:10:00,
2013-07-03 22:20:00,82.0,77.0,30.12,East,88,1.0,1.0,85,0.00,,,0.05,Wunderground v.1.15,2013-07-04 02:20:00,
2013-07-03 22:30:00,82.0,77.0,30.12,SSW,197,1.0,2.0,85,0.00,,,0.05,Wunderground v.1.15,2013-07-04 02:30:00,
2013-07-03 22:40:00,82.0,77.0,30.12,SSE,150,1.0,1.0,85,0.00,,,0.05,Wunderground v.1.15,2013-07-04 02:40:00,
2013-07-03 22:45:00,82.1,77.1,30.12,SSE,148,1.0,1.0,85,0.00,,,0.05,Wunderground v.1.15,2013-07-04 02:45:00,
2013-07-03 22:55:00,82.2,77.6,30.12,South,177,1.0,2.0,86,0.00,,,0.05,Wunderground v.1.15,2013-07-04 02:55:00,
2013-07-03 23:00:00,82.2,77.6,30.12,ESE,103,2.0,2.0,86,0.00,,,0.05,Wunderground v.1.15,2013-07-04 03:00:00,
2013-07-03 23:10:00,81.7,77.1,30.12,WSW,252,2.0,2.0,86,0.00,,,0.05,Wunderground v.1.15,2013-07-04 03:10:00,
2013-07-03 23:25:00,81.6,77.4,30.12,SW,228,3.0,3.0,87,0.00,,,0.05,Wunderground v.1.15,2013-07-04 03:25:00,
2013-07-03 23:35:00,81.7,77.1,30.13,SE,146,4.0,4.0,86,0.00,,,0.05,Wunderground v.1.15,2013-07-04 03:35:00,
2013-07-03 23:45:00,81.1,75.8,30.13,SSW,202,3.0,4.0,84,0.00,,,0.05,Wunderground v.1.15,2013-07-04 03:45:00,
2013-07-03 23:55:00,81.4,76.5,30.13,SW,224,2.0,4.0,85,0.00,,,0.05,Wunderground v.1.15,2013-07-04 03:55:00,